Time;durP1;ratioP1;P1;durP2;ratioP2;P2;SDS_P1;SDS_P2;PMS_P1;PMS_P2;Temp;Humidity;BMP_temperature;BMP_pressure;BME280_temperature;BME280_humidity;BME280_pressure;Samples;Min_cycle;Max_cycle;Signal;HPM_P1;HPM_P2
2021/04/25 00:02:24;;;;;;;25.13;8.20;;;;;;;5.05;58.61;102661.97;5107726;28;20161;-63
2021/04/25 00:04:49;;;;;;;23.70;8.13;;;;;;;5.02;59.12;102656.56;5104776;28;20517;-63
2021/04/25 00:07:14;;;;;;;23.20;8.45;;;;;;;5.01;59.52;102654.75;5106234;28;20028;-63
2021/04/25 00:09:40;;;;;;;24.05;8.27;;;;;;;5.00;59.66;102652.97;5106259;28;20024;-63
2021/04/25 00:12:06;;;;;;;25.48;8.60;;;;;;;4.93;60.43;102654.34;5103206;28;20126;-62
2021/04/25 00:14:31;;;;;;;24.52;8.38;;;;;;;4.84;60.64;102652.09;5107127;28;20058;-61
2021/04/25 00:16:57;;;;;;;25.50;8.70;;;;;;;4.81;61.25;102651.94;5103880;28;20081;-61
2021/04/25 00:19:23;;;;;;;26.73;8.70;;;;;;;4.73;61.59;102650.56;5107154;28;20385;-62
2021/04/25 00:21:48;;;;;;;24.38;8.48;;;;;;;4.77;61.29;102642.06;5104955;28;20030;-61
2021/04/25 00:24:13;;;;;;;25.75;9.32;;;;;;;4.62;62.31;102649.09;5105891;28;20074;-61
2021/04/25 00:26:39;;;;;;;25.80;8.85;;;;;;;4.52;62.70;102645.91;5106051;28;20037;-61
2021/04/25 00:29:04;;;;;;;26.88;9.38;;;;;;;4.51;62.91;102648.44;5103989;28;20055;-62
2021/04/25 00:31:31;;;;;;;26.58;9.25;;;;;;;4.51;63.35;102649.38;5107203;28;20073;-61
2021/04/25 00:33:57;;;;;;;26.67;9.27;;;;;;;4.43;63.63;102645.38;5099698;28;20485;-61
2021/04/25 00:36:23;;;;;;;25.67;9.02;;;;;;;4.48;63.22;102648.28;5106604;28;20027;-62
2021/04/25 00:38:48;;;;;;;24.52;8.85;;;;;;;4.47;63.37;102650.00;5104309;28;20024;-61
2021/04/25 00:41:13;;;;;;;25.02;9.00;;;;;;;4.38;63.96;102648.56;5105345;28;20111;-61
2021/04/25 00:43:39;;;;;;;25.67;8.65;;;;;;;4.35;64.07;102646.66;5105516;28;20032;-61
2021/04/25 00:46:04;;;;;;;24.45;8.95;;;;;;;4.30;64.15;102650.72;5103727;28;20416;-61
2021/04/25 00:48:29;;;;;;;26.73;9.45;;;;;;;4.26;64.50;102648.75;5106899;28;20030;-61
2021/04/25 00:50:55;;;;;;;24.73;9.10;;;;;;;4.23;64.41;102653.81;5101750;28;20101;-61
2021/04/25 00:53:21;;;;;;;24.95;9.00;;;;;;;4.25;64.58;102649.53;5106243;28;20055;-61
2021/04/25 00:55:49;;;;;;;25.58;9.15;;;;;;;4.22;64.96;102646.75;5104118;28;20031;-61
2021/04/25 00:58:15;;;;;;;27.05;9.45;;;;;;;4.14;64.98;102660.28;5103280;28;20043;-61
2021/04/25 01:00:40;;;;;;;26.92;9.45;;;;;;;4.16;65.07;102653.41;5105292;28;20027;-61
2021/04/25 01:03:06;;;;;;;27.08;9.68;;;;;;;4.18;64.74;102656.16;5103851;28;20035;-61
2021/04/25 01:05:32;;;;;;;24.50;9.25;;;;;;;4.09;65.43;102655.59;5106145;27;20489;-61
2021/04/25 01:07:57;;;;;;;27.48;10.27;;;;;;;4.04;65.56;102654.41;5103137;28;20028;-61
2021/04/25 01:10:22;;;;;;;27.20;9.55;;;;;;;4.03;65.57;102655.22;5105748;28;20359;-61
2021/04/25 01:12:48;;;;;;;27.88;9.95;;;;;;;3.99;65.97;102648.88;5104052;28;20068;-61
2021/04/25 01:15:15;;;;;;;24.90;9.38;;;;;;;3.94;66.19;102652.97;5104810;28;20377;-61
2021/04/25 01:17:43;;;;;;;24.75;9.10;;;;;;;3.90;65.96;102657.09;5104807;28;20424;-61
2021/04/25 01:20:10;;;;;;;26.95;9.55;;;;;;;3.88;66.63;102647.38;5103763;28;20024;-62
2021/04/25 01:22:36;;;;;;;26.73;9.52;;;;;;;3.80;66.60;102645.19;5105425;28;20110;-61
2021/04/25 01:25:09;;;;;;;27.13;9.82;;;;;;;3.72;67.10;102642.91;5102584;28;20161;-61
2021/04/25 01:27:34;;;;;;;26.88;10.05;;;;;;;3.70;66.79;102644.50;5105403;28;20501;-61
2021/04/25 01:30:02;;;;;;;25.40;9.50;;;;;;;3.66;66.89;102649.56;5103019;28;20055;-61
2021/04/25 01:32:28;;;;;;;26.88;9.52;;;;;;;3.67;66.82;102650.47;5098749;28;20024;-61
2021/04/25 01:34:54;;;;;;;26.80;9.57;;;;;;;3.65;66.89;102652.09;5105777;28;20027;-61
2021/04/25 01:37:19;;;;;;;26.88;10.35;;;;;;;3.53;67.43;102643.50;5103609;28;20381;-61
2021/04/25 01:39:45;;;;;;;26.55;9.68;;;;;;;3.48;67.74;102646.72;5104137;28;20028;-61
2021/04/25 01:42:10;;;;;;;27.25;10.38;;;;;;;3.37;68.28;102650.38;5104310;28;20534;-61
2021/04/25 01:44:36;;;;;;;29.77;10.98;;;;;;;3.38;67.99;102646.03;5102916;28;20111;-61
2021/04/25 01:47:01;;;;;;;28.50;10.75;;;;;;;3.34;68.23;102642.34;5105426;28;20074;-61
2021/04/25 01:49:26;;;;;;;27.95;10.32;;;;;;;3.34;68.48;102647.56;5102050;28;20059;-61
2021/04/25 01:51:52;;;;;;;26.90;10.27;;;;;;;3.27;68.41;102645.38;5105382;28;20024;-61
2021/04/25 01:54:17;;;;;;;26.08;10.40;;;;;;;3.23;68.88;102641.69;5103154;28;20024;-61
2021/04/25 01:56:43;;;;;;;26.83;11.15;;;;;;;3.25;69.04;102639.16;5103809;28;20256;-62
2021/04/25 01:59:08;;;;;;;26.23;10.88;;;;;;;3.25;68.82;102641.78;5104407;28;20385;-62
2021/04/25 02:01:34;;;;;;;27.55;10.57;;;;;;;3.13;69.50;102645.41;5102163;28;20043;-62
2021/04/25 02:04:00;;;;;;;28.10;11.13;;;;;;;3.10;69.67;102646.91;5105291;28;20043;-61
2021/04/25 02:06:26;;;;;;;27.27;10.80;;;;;;;3.11;69.83;102646.13;5101998;28;20114;-63
2021/04/25 02:08:51;;;;;;;28.88;11.40;;;;;;;2.96;70.14;102646.06;5103871;28;20031;-62
2021/04/25 02:11:17;;;;;;;26.70;10.38;;;;;;;2.93;70.51;102651.09;5103313;28;20035;-61
2021/04/25 02:13:42;;;;;;;27.05;10.95;;;;;;;2.95;70.65;102646.84;5103515;28;20024;-62
2021/04/25 02:16:08;;;;;;;27.73;11.73;;;;;;;2.99;70.45;102642.75;5104289;28;20038;-61
2021/04/25 02:18:33;;;;;;;27.92;11.68;;;;;;;2.96;70.66;102651.28;5101972;28;20036;-62
2021/04/25 02:20:59;;;;;;;26.63;11.75;;;;;;;2.93;70.85;102651.09;5105019;28;20032;-61
2021/04/25 02:23:25;;;;;;;32.33;11.85;;;;;;;2.92;70.95;102652.78;5101605;28;20028;-62
2021/04/25 02:25:51;;;;;;;28.80;11.43;;;;;;;2.86;71.03;102648.88;5104424;28;20631;-63
2021/04/25 02:28:16;;;;;;;28.13;11.10;;;;;;;2.82;71.09;102652.09;5102834;28;20028;-62
2021/04/25 02:30:42;;;;;;;28.27;11.70;;;;;;;2.81;71.32;102655.50;5102620;28;20436;-63
2021/04/25 02:33:08;;;;;;;29.27;10.90;;;;;;;2.84;71.48;102661.84;5104447;28;20393;-62
2021/04/25 02:35:34;;;;;;;29.33;10.95;;;;;;;2.88;71.53;102653.38;5101405;28;20024;-63
2021/04/25 02:38:00;;;;;;;28.42;11.00;;;;;;;2.94;71.22;102651.19;5105176;28;20028;-62
2021/04/25 02:40:29;;;;;;;28.50;10.50;;;;;;;2.94;70.56;102652.88;5101531;28;20046;-62
2021/04/25 02:42:55;;;;;;;28.08;11.60;;;;;;;3.02;71.21;102651.66;5104372;28;20027;-63
2021/04/25 02:45:22;;;;;;;27.73;10.48;;;;;;;3.12;70.96;102654.06;5101886;28;20024;-63
2021/04/25 02:47:50;;;;;;;27.55;10.82;;;;;;;3.09;71.09;102658.19;5103799;28;20107;-61
2021/04/25 02:50:16;;;;;;;27.58;10.50;;;;;;;3.13;71.18;102653.25;5102784;28;20381;-62
2021/04/25 02:52:42;;;;;;;29.23;10.88;;;;;;;3.22;70.94;102654.63;5102876;28;20028;-63
2021/04/25 02:55:08;;;;;;;29.35;11.18;;;;;;;3.27;70.44;102659.34;5103967;28;20042;-62
2021/04/25 02:57:33;;;;;;;29.55;11.88;;;;;;;3.19;70.50;102654.44;5101564;28;20404;-62
2021/04/25 02:59:59;;;;;;;27.30;11.77;;;;;;;3.12;70.56;102648.81;5104562;28;20111;-61
2021/04/25 03:02:24;;;;;;;30.23;11.70;;;;;;;3.11;70.79;102647.00;5101401;27;20056;-62
2021/04/25 03:04:50;;;;;;;28.90;11.77;;;;;;;3.06;70.66;102640.59;5103438;28;20044;-62
2021/04/25 03:07:15;;;;;;;26.58;11.25;;;;;;;2.93;71.12;102641.53;5102688;28;20084;-62
2021/04/25 03:09:41;;;;;;;27.23;10.65;;;;;;;2.93;71.37;102636.31;5102335;28;20518;-63
2021/04/25 03:12:06;;;;;;;26.45;10.05;;;;;;;2.93;70.81;102638.91;5103729;28;20474;-62
2021/04/25 03:14:32;;;;;;;26.98;10.75;;;;;;;2.96;70.63;102641.72;5101074;28;20024;-61
2021/04/25 03:16:57;;;;;;;28.67;10.80;;;;;;;3.01;70.62;102642.00;5104503;28;20111;-62
2021/04/25 03:19:24;;;;;;;25.85;10.02;;;;;;;3.07;69.87;102642.41;5103229;28;20424;-62
2021/04/25 03:21:49;;;;;;;29.08;11.32;;;;;;;3.18;69.91;102643.09;5107867;28;20035;-61
2021/04/25 03:24:15;;;;;;;26.95;10.57;;;;;;;3.21;69.06;102645.88;5106616;28;20390;-61
2021/04/25 03:26:40;;;;;;;25.08;9.98;;;;;;;3.26;68.70;102646.19;5106242;28;20483;-61
2021/04/25 03:29:07;;;;;;;26.08;9.82;;;;;;;3.36;68.71;102643.31;5107918;28;20031;-61
2021/04/25 03:31:32;;;;;;;26.83;9.77;;;;;;;3.43;67.86;102644.63;5104587;28;20028;-61
2021/04/25 03:33:57;;;;;;;26.40;9.60;;;;;;;3.41;67.75;102649.75;5108160;28;20019;-61
2021/04/25 03:36:23;;;;;;;26.33;9.57;;;;;;;3.47;67.71;102644.91;5105328;28;20055;-61
2021/04/25 03:38:48;;;;;;;25.13;9.48;;;;;;;3.47;67.75;102649.25;5106936;28;20016;-61
2021/04/25 03:41:14;;;;;;;24.48;8.50;;;;;;;3.53;67.21;102643.50;5106261;28;20481;-61
2021/04/25 03:43:39;;;;;;;23.90;8.23;;;;;;;3.49;66.77;102639.78;5105659;28;20390;-61
2021/04/25 03:46:04;;;;;;;23.17;7.70;;;;;;;3.45;66.20;102648.22;5107617;28;20024;-61
2021/04/25 03:48:30;;;;;;;23.73;8.07;;;;;;;3.40;66.89;102645.34;5104302;28;20036;-61
2021/04/25 03:50:55;;;;;;;24.65;8.20;;;;;;;3.36;66.83;102648.56;5107914;28;20030;-61
2021/04/25 03:53:20;;;;;;;24.10;8.02;;;;;;;3.34;66.74;102652.78;5105287;28;20036;-61
2021/04/25 03:55:45;;;;;;;24.15;8.25;;;;;;;3.36;66.37;102652.91;5106450;28;20066;-61
2021/04/25 03:58:11;;;;;;;23.40;7.93;;;;;;;3.38;66.40;102649.56;5106712;28;20115;-61
2021/04/25 04:00:36;;;;;;;22.40;7.45;;;;;;;3.34;66.34;102650.19;5104717;28;20024;-61
2021/04/25 04:03:02;;;;;;;25.10;8.52;;;;;;;3.29;65.63;102652.50;5107833;28;20473;-61
2021/04/25 04:05:27;;;;;;;22.60;7.80;;;;;;;3.31;65.93;102650.00;5103738;28;20046;-61
2021/04/25 04:07:52;;;;;;;24.20;7.32;;;;;;;3.25;65.78;102647.00;5107129;28;20027;-61
2021/04/25 04:10:18;;;;;;;23.58;7.43;;;;;;;3.20;66.01;102651.03;5104405;27;20036;-61
2021/04/25 04:12:43;;;;;;;22.92;7.45;;;;;;;3.10;66.33;102653.06;5105582;28;20073;-61
2021/04/25 04:15:09;;;;;;;25.70;7.80;;;;;;;3.01;66.86;102655.06;5106583;28;20132;-61
2021/04/25 04:17:34;;;;;;;23.80;8.07;;;;;;;3.03;66.27;102647.31;5104310;28;20023;-61
2021/04/25 04:20:00;;;;;;;23.35;7.75;;;;;;;2.88;66.58;102642.91;5107255;28;20462;-61
2021/04/25 04:22:25;;;;;;;23.92;7.93;;;;;;;2.91;66.31;102648.38;5104024;28;20024;-61
2021/04/25 04:24:50;;;;;;;24.20;7.90;;;;;;;2.89;65.87;102652.56;5106646;28;20039;-61
2021/04/25 04:27:16;;;;;;;22.83;7.40;;;;;;;2.90;65.67;102646.56;5105247;28;20458;-61
2021/04/25 04:29:41;;;;;;;23.90;7.55;;;;;;;2.86;66.04;102649.78;5104912;28;20121;-61
2021/04/25 04:32:06;;;;;;;24.20;8.27;;;;;;;2.86;65.77;102648.88;5105956;28;20016;-61
2021/04/25 04:34:32;;;;;;;23.02;7.82;;;;;;;2.90;65.19;102645.66;5103441;28;20032;-61
2021/04/25 04:36:57;;;;;;;24.52;7.70;;;;;;;2.88;65.27;102648.16;5107402;28;20126;-61
2021/04/25 04:39:23;;;;;;;23.80;8.30;;;;;;;2.91;64.87;102650.06;5104150;28;20512;-63
2021/04/25 04:41:49;;;;;;;23.10;8.02;;;;;;;2.95;64.65;102650.34;5105310;28;20024;-62
2021/04/25 04:44:15;;;;;;;25.35;7.97;;;;;;;2.94;64.62;102639.81;5105418;28;20038;-62
2021/04/25 04:46:40;;;;;;;23.50;8.07;;;;;;;2.99;64.86;102645.34;5102924;28;20398;-63
2021/04/25 04:49:06;;;;;;;25.85;7.90;;;;;;;3.10;64.51;102653.06;5106303;28;20027;-62
2021/04/25 04:51:31;;;;;;;22.73;7.32;;;;;;;3.13;64.09;102645.41;5103202;28;20047;-62
2021/04/25 04:53:56;;;;;;;23.83;7.88;;;;;;;3.20;63.92;102651.91;5106684;28;20028;-62
2021/04/25 04:56:22;;;;;;;22.80;7.70;;;;;;;3.22;63.85;102650.31;5103874;28;20474;-62
2021/04/25 04:58:47;;;;;;;23.75;7.50;;;;;;;3.26;63.38;102657.56;5105102;28;20114;-61
2021/04/25 05:01:12;;;;;;;23.17;7.20;;;;;;;3.34;63.43;102660.66;5105053;28;20066;-61
2021/04/25 05:03:38;;;;;;;24.38;7.70;;;;;;;3.47;63.03;102657.09;5103494;28;20058;-61
2021/04/25 05:06:03;;;;;;;22.42;7.65;;;;;;;3.61;62.06;102655.31;5106812;27;20049;-61
2021/04/25 05:08:28;;;;;;;22.27;7.47;;;;;;;3.74;62.26;102657.91;5102811;28;20028;-62
2021/04/25 05:10:54;;;;;;;22.85;7.28;;;;;;;3.82;61.26;102667.09;5105737;28;20052;-61
2021/04/25 05:13:19;;;;;;;24.60;7.68;;;;;;;3.95;61.60;102668.75;5103935;28;20081;-62
2021/04/25 05:15:44;;;;;;;23.48;7.20;;;;;;;4.06;61.57;102661.53;5104618;28;20026;-62
2021/04/25 05:18:10;;;;;;;22.65;6.72;;;;;;;4.14;60.53;102660.28;5105395;28;20016;-62
2021/04/25 05:20:36;;;;;;;22.65;7.03;;;;;;;4.17;60.85;102667.44;5089776;28;20474;-62
2021/04/25 05:23:01;;;;;;;21.35;6.63;;;;;;;4.27;59.89;102666.25;5097418;28;20059;-61
2021/04/25 05:25:27;;;;;;;22.10;6.60;;;;;;;4.38;60.35;102673.00;5099603;28;20035;-61
2021/04/25 05:27:52;;;;;;;24.98;7.13;;;;;;;4.44;59.97;102670.78;5098448;28;20023;-60
2021/04/25 05:30:18;;;;;;;21.05;6.70;;;;;;;4.48;60.01;102671.84;5097810;28;20032;-60
2021/04/25 05:32:44;;;;;;;22.38;6.78;;;;;;;4.54;59.07;102662.66;5097388;28;20036;-60
2021/04/25 05:35:11;;;;;;;22.23;6.55;;;;;;;4.57;59.40;102668.84;5096535;28;20478;-60
2021/04/25 05:37:37;;;;;;;22.77;7.30;;;;;;;4.64;59.62;102674.53;5099940;28;20024;-61
2021/04/25 05:40:05;;;;;;;23.17;6.68;;;;;;;4.74;59.27;102675.09;5096918;28;20035;-60
2021/04/25 05:42:30;;;;;;;21.52;6.40;;;;;;;4.79;59.31;102677.16;5095357;28;20439;-61
2021/04/25 05:44:55;;;;;;;23.33;7.28;;;;;;;4.85;58.50;102674.88;5098551;28;20119;-61
2021/04/25 05:47:21;;;;;;;24.35;6.78;;;;;;;4.95;58.75;102681.56;5097505;28;20034;-62
2021/04/25 05:49:46;;;;;;;20.83;6.57;;;;;;;5.00;57.83;102685.31;5101075;28;20040;-62
2021/04/25 05:52:11;;;;;;;21.05;6.30;;;;;;;5.12;57.71;102685.09;5096664;28;20028;-62
2021/04/25 05:54:37;;;;;;;21.33;6.63;;;;;;;5.15;57.58;102674.78;5099272;28;20487;-62
2021/04/25 05:57:03;;;;;;;21.73;6.38;;;;;;;5.19;56.96;102687.25;5097148;28;20028;-61
2021/04/25 05:59:28;;;;;;;22.30;6.43;;;;;;;5.22;57.41;102687.41;5098787;28;20081;-62
2021/04/25 06:01:53;;;;;;;22.23;6.50;;;;;;;5.35;57.34;102690.72;5097270;28;20028;-61
2021/04/25 06:04:19;;;;;;;22.42;6.50;;;;;;;5.38;55.74;102683.03;5097157;28;20048;-61
2021/04/25 06:06:45;;;;;;;20.08;5.88;;;;;;;5.37;55.66;102689.09;5099670;28;20081;-61
2021/04/25 06:09:11;;;;;;;21.70;6.10;;;;;;;5.43;56.28;102681.53;5096504;28;20032;-61
2021/04/25 06:11:36;;;;;;;21.15;5.85;;;;;;;5.44;54.78;102685.09;5095130;28;20073;-60
2021/04/25 06:14:04;;;;;;;21.70;5.95;;;;;;;5.41;54.66;102693.69;5099111;28;20112;-63
2021/04/25 06:16:29;;;;;;;19.90;5.63;;;;;;;5.49;54.73;102692.41;5097228;28;20028;-61
2021/04/25 06:18:54;;;;;;;20.08;5.85;;;;;;;5.58;54.76;102687.63;5099733;28;20151;-61
2021/04/25 06:21:21;;;;;;;19.08;5.32;;;;;;;5.64;54.23;102691.44;5096740;28;20359;-61
2021/04/25 06:23:47;;;;;;;21.25;6.10;;;;;;;5.72;54.75;102685.78;5097946;28;20543;-61
2021/04/25 06:26:12;;;;;;;20.48;5.45;;;;;;;5.84;54.54;102688.16;5097591;28;20063;-61
2021/04/25 06:28:37;;;;;;;22.50;5.70;;;;;;;5.84;53.90;102697.72;5099831;28;20024;-61
2021/04/25 06:31:02;;;;;;;21.52;5.60;;;;;;;5.84;53.28;102702.97;5096876;28;20054;-61
2021/04/25 06:33:28;;;;;;;21.80;5.40;;;;;;;5.86;52.84;102702.25;5096830;28;20027;-61
2021/04/25 06:35:53;;;;;;;19.63;5.85;;;;;;;5.89;53.26;102712.00;5098824;28;20482;-62
2021/04/25 06:38:20;;;;;;;20.65;5.70;;;;;;;5.90;53.31;102706.84;5096576;28;20073;-61
2021/04/25 06:40:45;;;;;;;22.00;6.00;;;;;;;5.97;53.26;102713.38;5098120;28;20031;-62
2021/04/25 06:43:11;;;;;;;22.90;5.70;;;;;;;6.01;53.49;102717.94;5096933;28;20028;-62
2021/04/25 06:45:36;;;;;;;20.30;5.32;;;;;;;6.09;52.68;102718.34;5097406;28;20062;-61
2021/04/25 06:48:02;;;;;;;20.23;5.22;;;;;;;6.15;52.66;102729.19;5099217;28;20031;-61
2021/04/25 06:50:27;;;;;;;20.20;5.32;;;;;;;6.24;52.38;102719.13;5096197;28;20493;-61
2021/04/25 06:52:53;;;;;;;22.42;5.30;;;;;;;6.37;52.66;102725.03;5098716;28;20032;-62
2021/04/25 06:55:20;;;;;;;21.10;6.65;;;;;;;6.47;53.45;102719.44;5102950;28;20382;-61
2021/04/25 06:57:48;;;;;;;20.45;5.68;;;;;;;6.59;52.42;102717.41;5104497;28;20020;-61
2021/04/25 07:00:15;;;;;;;21.85;5.50;;;;;;;6.65;51.83;102724.72;5102984;28;20070;-61
2021/04/25 07:02:41;;;;;;;19.55;5.35;;;;;;;6.62;50.98;102732.44;5104452;28;20063;-61
2021/04/25 07:05:08;;;;;;;20.48;5.40;;;;;;;6.59;50.78;102732.28;5105176;28;20477;-61
2021/04/25 07:07:34;;;;;;;20.90;5.57;;;;;;;6.60;51.84;102732.38;5105202;28;20042;-61
2021/04/25 07:10:00;;;;;;;20.08;5.20;;;;;;;6.72;50.93;102731.19;5103542;28;20028;-61
2021/04/25 07:12:26;;;;;;;22.55;5.40;;;;;;;6.87;50.54;102723.16;5106106;28;20027;-61
2021/04/25 07:14:51;;;;;;;21.17;5.32;;;;;;;6.97;50.11;102720.16;5106349;27;20436;-61
2021/04/25 07:17:17;;;;;;;19.42;5.60;;;;;;;6.92;51.19;102725.19;5102774;27;20032;-61
2021/04/25 07:19:42;;;;;;;21.25;5.10;;;;;;;6.93;50.63;102728.72;5108076;28;20024;-61
2021/04/25 07:22:07;;;;;;;19.92;5.00;;;;;;;6.97;51.26;102721.06;5104839;27;20514;-61
2021/04/25 07:24:33;;;;;;;19.42;5.15;;;;;;;6.98;49.61;102714.97;5107575;27;20040;-61
2021/04/25 07:26:58;;;;;;;20.52;5.50;;;;;;;7.00;50.60;102725.56;5110791;27;20041;-61
2021/04/25 07:29:24;;;;;;;21.95;5.45;;;;;;;7.00;50.16;102722.03;5107052;27;20028;-61
2021/04/25 07:31:49;;;;;;;20.35;5.50;;;;;;;7.10;50.39;102719.91;5110154;28;20028;-62
2021/04/25 07:34:15;;;;;;;21.95;5.50;;;;;;;7.21;49.69;102716.91;5108273;27;20028;-62
2021/04/25 07:36:40;;;;;;;20.90;5.22;;;;;;;7.31;48.54;102724.41;5109006;28;20024;-62
2021/04/25 07:39:06;;;;;;;21.65;5.40;;;;;;;7.33;48.26;102720.13;5109932;27;20023;-62
2021/04/25 07:41:32;;;;;;;18.63;5.10;;;;;;;7.56;48.86;102717.66;5107776;28;20020;-62
2021/04/25 07:43:57;;;;;;;20.13;5.15;;;;;;;7.74;47.55;102722.91;5111329;27;20030;-63
2021/04/25 07:46:23;;;;;;;19.45;5.18;;;;;;;7.84;47.06;102725.13;5107780;27;20016;-62
2021/04/25 07:48:49;;;;;;;21.80;5.88;;;;;;;7.95;46.44;102713.34;5110112;28;20594;-62
2021/04/25 07:51:15;;;;;;;19.92;5.43;;;;;;;8.02;45.64;102718.06;5108820;27;20035;-63
2021/04/25 07:53:40;;;;;;;20.45;5.35;;;;;;;8.08;45.99;102720.06;5108833;28;20030;-62
2021/04/25 07:56:06;;;;;;;22.38;5.53;;;;;;;8.30;45.60;102726.25;5110121;27;20111;-62
2021/04/25 07:58:31;;;;;;;23.05;5.55;;;;;;;8.44;45.97;102719.88;5107756;28;20034;-62
2021/04/25 08:00:56;;;;;;;21.17;5.82;;;;;;;8.61;44.93;102725.88;5110834;27;20023;-62
2021/04/25 08:03:22;;;;;;;18.90;5.20;;;;;;;8.80;44.72;102724.91;5107584;27;20485;-62
2021/04/25 08:05:47;;;;;;;21.15;5.50;;;;;;;9.04;45.13;102725.03;5107083;28;20062;-63
2021/04/25 08:08:12;;;;;;;21.80;5.57;;;;;;;9.39;43.91;102722.91;5105589;28;20110;-62
2021/04/25 08:10:38;;;;;;;20.55;5.30;;;;;;;9.72;42.87;102724.13;5105091;28;20118;-62
2021/04/25 08:13:06;;;;;;;23.60;5.85;;;;;;;10.02;42.83;102716.44;5106839;27;20034;-62
2021/04/25 08:15:31;;;;;;;22.70;5.70;;;;;;;10.37;42.48;102727.41;5102430;28;20032;-63
2021/04/25 08:17:56;;;;;;;21.58;5.60;;;;;;;10.88;41.00;102717.63;5106280;28;20378;-63
2021/04/25 08:20:23;;;;;;;19.60;5.20;;;;;;;11.15;40.31;102720.28;5104166;28;20060;-62
2021/04/25 08:22:49;;;;;;;20.98;5.45;;;;;;;10.78;40.22;102717.34;5106671;28;20128;-63
2021/04/25 08:25:15;;;;;;;21.88;5.30;;;;;;;10.87;40.16;102716.75;5105506;28;20051;-63
2021/04/25 08:27:40;;;;;;;20.65;5.20;;;;;;;11.22;39.63;102718.75;5104922;28;20386;-62
2021/04/25 08:30:06;;;;;;;19.40;5.20;;;;;;;11.95;39.41;102720.06;5106300;28;20035;-63
2021/04/25 08:32:31;;;;;;;20.58;5.30;;;;;;;12.62;38.25;102708.59;5103938;28;20022;-63
2021/04/25 08:34:57;;;;;;;20.15;4.82;;;;;;;12.75;36.77;102704.50;5107338;28;20024;-62
2021/04/25 08:37:22;;;;;;;20.55;5.28;;;;;;;12.33;37.20;102703.41;5104156;28;20474;-62
2021/04/25 08:39:47;;;;;;;19.77;5.20;;;;;;;12.73;37.17;102707.13;5105909;28;20038;-62
2021/04/25 08:42:13;;;;;;;19.60;4.85;;;;;;;13.72;34.96;102702.31;5104975;28;20474;-63
2021/04/25 08:44:42;;;;;;;20.58;5.30;;;;;;;14.60;33.88;102703.94;5104322;28;20030;-63
2021/04/25 08:47:07;;;;;;;19.80;5.00;;;;;;;15.39;31.68;102706.97;5106106;28;20355;-60
2021/04/25 08:49:34;;;;;;;19.48;5.07;;;;;;;16.10;30.95;102707.88;5103602;28;20031;-60
2021/04/25 08:52:02;;;;;;;20.00;4.90;;;;;;;16.80;30.04;102701.41;5106479;28;20484;-61
2021/04/25 08:54:27;;;;;;;20.73;5.25;;;;;;;16.60;29.14;102707.50;5099368;28;20050;-60
2021/04/25 08:56:55;;;;;;;19.00;4.85;;;;;;;16.38;28.75;102699.28;5103055;28;20028;-61
2021/04/25 08:59:21;;;;;;;20.20;5.13;;;;;;;16.30;30.30;102689.41;5104112;28;20031;-61
2021/04/25 09:01:46;;;;;;;18.33;4.60;;;;;;;15.30;31.03;102703.31;5104285;28;20016;-61
2021/04/25 09:04:12;;;;;;;19.65;4.88;;;;;;;14.03;33.11;102704.69;5105081;28;20036;-61
2021/04/25 09:07:03;;;;;;;20.55;4.80;;;;;;;14.41;33.27;102710.72;5102910;28;20031;-61
2021/04/25 09:09:51;;;;;;;18.48;4.75;;;;;;;14.00;33.66;102710.84;5103147;28;20020;-61
2021/04/25 09:12:40;;;;;;;20.70;4.82;;;;;;;13.70;34.11;102709.38;5102307;28;20048;-60
2021/04/25 09:15:12;;;;;;;19.38;5.50;;;;;;;12.82;36.33;102707.31;5099167;28;20027;-61
2021/04/25 09:17:54;;;;;;;20.67;5.20;;;;;;;12.61;36.30;102712.09;5105691;28;20110;-59
2021/04/25 09:20:30;;;;;;;20.88;5.55;;;;;;;12.55;35.67;102705.78;5104243;28;20031;-59
2021/04/25 09:22:55;;;;;;;20.00;5.30;;;;;;;13.59;34.12;102703.81;5103674;27;20419;-60
2021/04/25 09:25:20;;;;;;;19.75;4.95;;;;;;;15.06;32.94;102697.63;5104622;28;20024;-60
2021/04/25 09:27:47;;;;;;;20.08;5.10;;;;;;;15.92;30.42;102701.47;5104606;28;20023;-60
2021/04/25 09:30:21;;;;;;;16.98;4.72;;;;;;;16.70;29.94;102688.00;5103459;28;20059;-60
2021/04/25 09:32:46;;;;;;;18.50;4.70;;;;;;;16.99;29.21;102683.78;5104517;28;20080;-60
2021/04/25 09:35:17;;;;;;;18.17;4.43;;;;;;;17.98;28.61;102690.50;5102913;28;20020;-59
2021/04/25 09:37:46;;;;;;;18.70;4.50;;;;;;;18.05;27.11;102688.75;5103306;28;20451;-60
2021/04/25 09:40:18;;;;;;;19.88;4.57;;;;;;;17.45;27.07;102686.72;5103107;28;20432;-60
2021/04/25 09:43:03;;;;;;;16.92;4.55;;;;;;;17.49;28.65;102692.97;5103283;28;20397;-59
2021/04/25 09:46:02;;;;;;;16.30;4.78;;;;;;;17.59;26.75;102692.13;5105033;28;20081;-59
2021/04/25 09:48:30;;;;;;;20.33;4.90;;;;;;;16.65;28.52;102689.72;5062196;28;20040;-60
2021/04/25 09:51:11;;;;;;;20.45;4.82;;;;;;;16.26;29.91;102693.81;5060110;28;20111;-60
2021/04/25 09:53:38;;;;;;;20.63;4.88;;;;;;;17.30;28.57;102690.22;5055998;28;20116;-60
2021/04/25 09:56:05;;;;;;;18.98;4.60;;;;;;;18.52;26.85;102685.22;5055482;28;20496;-60
2021/04/25 09:58:31;;;;;;;19.30;4.97;;;;;;;18.94;26.16;102682.56;5062891;28;20479;-60
2021/04/25 10:00:56;;;;;;;18.80;4.50;;;;;;;19.64;25.30;102675.19;5060007;28;20044;-61
2021/04/25 10:03:23;;;;;;;21.10;4.80;;;;;;;19.73;24.28;102676.94;5061481;28;20111;-60
2021/04/25 10:05:59;;;;;;;18.55;4.78;;;;;;;19.51;24.81;102688.69;5060954;28;20052;-59
2021/04/25 10:08:29;;;;;;;18.95;4.68;;;;;;;20.08;25.04;102676.78;5061601;28;20086;-60
2021/04/25 10:10:55;;;;;;;17.17;4.30;;;;;;;19.65;24.90;102674.31;5059825;28;20028;-59
2021/04/25 10:13:21;;;;;;;18.48;4.30;;;;;;;18.84;25.35;102686.13;5061104;28;20025;-60
2021/04/25 10:15:46;;;;;;;21.13;4.57;;;;;;;18.02;25.98;102668.22;5060989;28;20032;-60
2021/04/25 10:18:12;;;;;;;18.95;4.50;;;;;;;18.19;26.12;102670.03;5059687;28;20063;-60
2021/04/25 10:20:38;;;;;;;19.90;4.47;;;;;;;18.23;25.84;102672.72;5062449;28;20115;-62
2021/04/25 10:23:03;;;;;;;18.75;4.60;;;;;;;18.50;25.35;102676.31;5058990;28;20571;-62
2021/04/25 10:25:37;;;;;;;19.23;4.95;;;;;;;19.11;25.35;102669.13;5090065;28;20035;-61
2021/04/25 10:28:10;;;;;;;19.60;4.50;;;;;;;19.88;25.14;102663.50;5097493;28;20023;-62
2021/04/25 10:30:41;;;;;;;15.73;4.70;;;;;;;19.61;24.37;102669.84;5097695;28;20028;-61
2021/04/25 10:33:07;;;;;;;19.65;4.72;;;;;;;18.73;25.12;102662.03;5097642;28;20104;-61
2021/04/25 10:35:35;;;;;;;21.20;4.55;;;;;;;19.25;25.81;102663.72;5097126;28;20024;-62
2021/04/25 10:38:04;;;;;;;18.20;4.70;;;;;;;21.47;22.84;102658.47;5104642;28;20103;-61
2021/04/25 10:40:31;;;;;;;18.60;5.22;;;;;;;20.86;22.86;102645.72;5101731;28;20024;-61
2021/04/25 10:43:01;;;;;;;19.02;5.00;;;;;;;19.77;23.92;102655.44;5103973;28;20477;-61
2021/04/25 10:45:29;;;;;;;18.45;4.72;;;;;;;18.99;24.62;102657.53;5102132;28;20031;-61
2021/04/25 10:48:19;;;;;;;21.63;4.80;;;;;;;19.12;24.69;102654.81;5103448;28;20039;-61
2021/04/25 10:50:47;;;;;;;19.48;4.90;;;;;;;18.54;25.47;102647.75;5099601;28;20032;-61
2021/04/25 10:53:21;;;;;;;19.40;5.03;;;;;;;19.59;24.83;102651.09;5103932;28;20048;-60
2021/04/25 10:55:48;;;;;;;18.95;4.95;;;;;;;19.88;23.95;102636.66;5102305;28;20024;-60
2021/04/25 10:58:14;;;;;;;17.90;5.00;;;;;;;18.71;24.46;102648.66;5103679;28;20024;-61
2021/04/25 11:00:40;;;;;;;19.38;5.20;;;;;;;19.08;25.49;102643.22;5101304;28;20024;-64
2021/04/25 11:03:20;;;;;;;18.80;4.80;;;;;;;20.49;25.09;102629.94;5104238;28;20035;-63
2021/04/25 11:05:48;;;;;;;16.88;4.45;;;;;;;21.92;22.08;102634.56;5099680;28;20040;-61
2021/04/25 11:08:13;;;;;;;17.27;4.60;;;;;;;22.69;21.59;102635.09;5103707;28;20016;-62
2021/04/25 11:10:55;;;;;;;17.20;4.68;;;;;;;22.50;21.60;102631.84;5101104;28;20028;-61
2021/04/25 11:13:36;;;;;;;18.48;4.35;;;;;;;23.24;21.03;102625.09;5102750;28;20078;-62
2021/04/25 11:16:22;;;;;;;16.73;4.70;;;;;;;21.65;22.19;102630.47;5104291;28;20078;-62
2021/04/25 11:18:53;;;;;;;19.65;4.80;;;;;;;20.87;22.82;102627.81;5057448;28;20037;-62
2021/04/25 11:21:31;;;;;;;17.52;4.70;;;;;;;22.05;22.26;102624.50;5060438;28;20476;-62